Bookmark and Share
Track history (hours):
 

Callsign CUPM6 (name unknown)

Last reported at 2014-Apr-24 05:32 UTC. Time now 2014-Apr-24 05:56 UTC.
Position N 36°48' W 008°33'.

Length 27 m.

Type: Ship. MMSI: 263236000.

NotesDate/timePositionNaut miles runAvg speedWind from/ knotsBaromVisibWave heightAir tempDewpointWater temp
2014-Apr-24 05:32N 36°48' W 008°33'9 9.4
2014-Apr-24 04:33N 36°46' W 008°44'1 1.1
2014-Apr-24 03:34N 36°46' W 008°46'3 2.8
2014-Apr-24 02:32N 36°46' W 008°42'6 2.6
2014-Apr-24 00:15N 36°52' W 008°39'5 7.7
2014-Apr-23 23:33N 36°57' W 008°36'10 9.9
2014-Apr-23 22:33N 37°06' W 008°32'2 1.9
2014-Apr-23 21:28N 37°08' W 008°32'0 0.0
2014-Apr-23 20:32N 37°08' W 008°32'8 8.0
2014-Apr-23 19:33N 37°01' W 008°29'9 9.4
2014-Apr-23 18:33N 36°52' W 008°24'4 3.7
2014-Apr-23 17:33N 36°49' W 008°21'3 3.0
2014-Apr-23 16:31N 36°49' W 008°17'3 3.1
2014-Apr-23 15:33N 36°49' W 008°13'3 3.2
2014-Apr-23 14:32N 36°49' W 008°09'1 1.3
2014-Apr-23 13:27N 36°48' W 008°11'9 2.9
2014-Apr-23 10:20N 36°49' W 008°22'1 1.5
2014-Apr-23 09:31N 36°49' W 008°23'3 3.0
2014-Apr-23 08:27N 36°49' W 008°19'3 3.0
2014-Apr-23 07:33N 36°49' W 008°16'3 3.1
2014-Apr-23 06:33N 36°49' W 008°12'3 1.4
2014-Apr-23 04:14N 36°46' W 008°15'2 3.1
2014-Apr-23 03:33N 36°46' W 008°12'3 3.1
2014-Apr-23 02:33N 36°47' W 008°09'6 3.0
2014-Apr-23 00:33N 36°48' W 008°01'5 0.8
2014-Apr-22 18:05N 36°49' W 008°08'2 2.8
2014-Apr-22 17:33N 36°49' W 008°10'6 2.9
2014-Apr-22 15:26N 36°49' W 008°17'4 2.9
2014-Apr-22 14:08N 36°49' W 008°22'1 1.6
2014-Apr-22 13:33N 36°49' W 008°21'3 3.0
2014-Apr-22 12:33N 36°49' W 008°17'3 2.9
2014-Apr-22 11:31N 36°49' W 008°13'3 3.0
2014-Apr-22 10:33N 36°49' W 008°10'2 2.1
2014-Apr-22 09:30N 36°49' W 008°07'3 2.9
2014-Apr-22 08:28N 36°51' W 008°04'3 3.0
2014-Apr-22 07:28N 36°51' W 008°00'3 3.0
2014-Apr-22 06:33N 36°52' W 007°57'2 0.6
2014-Apr-22 03:33N 36°52' W 007°59'3 2.7
2014-Apr-22 02:33N 36°52' W 008°02'4 2.6
2014-Apr-22 01:08N 36°51' W 008°07'2 2.8
2014-Apr-22 00:24N 36°50' W 008°09'8 8.9
2014-Apr-21 23:33N 36°55' W 008°16'10 9.9
2014-Apr-21 22:33N 37°02' W 008°25'  
2014-Apr-16 23:31N 37°08' W 008°32'0 0.0
2014-Apr-16 22:33N 37°08' W 008°32'2 1.6
2014-Apr-16 21:33N 37°06' W 008°32'9 9.4
2014-Apr-16 20:33N 36°59' W 008°24'9 9.2
2014-Apr-16 19:32N 36°53' W 008°16'5 5.5
2014-Apr-16 18:33N 36°49' W 008°11'3 3.0
2014-Apr-16 17:30N 36°50' W 008°07'3 3.0
2014-Apr-16 16:33N 36°51' W 008°03'3 3.1
2014-Apr-16 15:34N 36°51' W 007°60'3 3.0
2014-Apr-16 14:33N 36°52' W 007°56'1 0.5
2014-Apr-16 13:20N 36°52' W 007°57'2 3.0
2014-Apr-16 12:33N 36°51' W 007°59'3 2.9
2014-Apr-16 11:25N 36°51' W 008°03'4 3.0
2014-Apr-16 10:05N 36°49' W 008°08'2 2.2
2014-Apr-16 09:19N 36°50' W 008°06'2 3.0
2014-Apr-16 08:33N 36°51' W 008°04'3 3.0
2014-Apr-16 07:34N 36°51' W 007°60'3 0.4
2014-Apr-16 00:06N 36°49' W 007°58'3 1.4
2014-Apr-15 22:11N 36°48' W 008°02'2 2.9
2014-Apr-15 21:32N 36°49' W 007°60'7 2.3
2014-Apr-15 18:33N 36°49' W 008°08'4 3.1
2014-Apr-15 17:05N 36°49' W 008°14'2 3.1
2014-Apr-15 16:33N 36°49' W 008°12'3 3.0
2014-Apr-15 15:34N 36°49' W 008°08'4 1.0
2014-Apr-15 11:34N 36°49' W 008°13'7 2.2
2014-Apr-15 08:34N 36°49' W 008°21'6 3.0
2014-Apr-15 06:33N 36°48' W 008°13'3 3.0
2014-Apr-15 05:30N 36°49' W 008°09'  

Dump ship's entire track history

sailing weather and tide predictions

Ship Status Report: callsign CUPM6